Terminal Aerodrome Forecast
Issued by NWS

Home | Current Version | Previous Version | Text Only | Print | Product List | Glossary On
Versions: 1 2 3 4 5 6 7 8 9 10 11 12 13 14
000
FTUS45 KTFX 240500
TAFHVR
TAF
KHVR 240520Z 2406/2506 VRB06KT P6SM SCT060 BKN150
      TEMPO 2406/2407 VRB20G45KT 5SM TSRAGS BKN050CB
     FM240900 VRB05KT P6SM SKC
     FM241200 24015KT P6SM SKC
     FM241800 27020G35KT P6SM SKC
     FM250200 26010KT P6SM SKC=

USA.gov is the U.S. government's official web portal to all federal, state and local government web resources and services.